General Aviation Weather

Text Reports

Enter one or more of the following location identifiers separated by a space:

Zip Code, Four-Character ICAO or Three-Character IATA airport codes.

METAR - Aviation Routine Weather Report
K1B7 - Venice, Louisiana
Updated at 4:30 PM GMT on October 01, 2014 (11:30 AM CDT):
SPECI K1B7 011630Z 26003KT 9SM -TSRA SCT018 SCT023 BKN044 26/24 A2995 RMK WSHT 120
TAF - Terminal Area Forecast
K1B7 - Venice, Louisiana
Updated at 4:30 PM GMT on October 01, 2014 (11:30 AM CDT):
No TAF is currently available for this location.
Decoded:
No decoded TAF is available.
PIREP - Pilot Weather Report
K1B7 - Venice, Louisiana
Updated at 4:30 PM GMT on October 01, 2014 (11:30 AM CDT):
No PIREP is currently available for this location.
AIRMET - Airmens Meteorological Information
K1B7 - Venice, Louisiana
Updated at 4:30 PM GMT on October 01, 2014 (11:30 AM CDT):
No AIRMET is currently available for this location.
SIGMET - Significant Meteorological Information
K1B7 - Venice, Louisiana
Updated at 4:30 PM GMT on October 01, 2014 (11:30 AM CDT):
No SIGMET is currently available for this location.
NOTAM - Notice to Airmen
K1B7 - Venice, Louisiana
Updated at 4:30 PM GMT on October 01, 2014 (11:30 AM CDT):
No NOTAM is currently available for this location.
Forecast Area
K1B7 - Venice, Louisiana
Updated at 4:30 PM GMT on October 01, 2014 (11:30 AM CDT):
No NOTAM is currently available for this location.
Aviation Weather Maps